sensor_id;sensor_type;location;lat;lon;timestamp;temperature;humidity
19085;DHT22;9675;51.538;6.728;2022-11-15T00:00:49;10.10;99.90
19085;DHT22;9675;51.538;6.728;2022-11-15T00:03:18;10.10;99.90
19085;DHT22;9675;51.538;6.728;2022-11-15T00:05:47;10.10;99.90
19085;DHT22;9675;51.538;6.728;2022-11-15T00:08:15;10.10;99.90
19085;DHT22;9675;51.538;6.728;2022-11-15T00:10:42;10.10;99.90
19085;DHT22;9675;51.538;6.728;2022-11-15T00:13:20;10.10;99.90
19085;DHT22;9675;51.538;6.728;2022-11-15T00:15:49;10.10;99.90
19085;DHT22;9675;51.538;6.728;2022-11-15T00:18:16;10.10;99.90
19085;DHT22;9675;51.538;6.728;2022-11-15T00:20:44;10.20;99.90
19085;DHT22;9675;51.538;6.728;2022-11-15T00:23:11;10.10;99.90
19085;DHT22;9675;51.538;6.728;2022-11-15T00:25:38;10.20;99.90
19085;DHT22;9675;51.538;6.728;2022-11-15T00:28:05;10.20;99.90
19085;DHT22;9675;51.538;6.728;2022-11-15T00:30:33;10.20;99.90
19085;DHT22;9675;51.538;6.728;2022-11-15T00:33:03;10.20;99.90
19085;DHT22;9675;51.538;6.728;2022-11-15T00:35:31;10.20;99.90
19085;DHT22;9675;51.538;6.728;2022-11-15T00:37:59;10.30;99.90
19085;DHT22;9675;51.538;6.728;2022-11-15T00:40:27;10.30;99.90
19085;DHT22;9675;51.538;6.728;2022-11-15T00:42:54;10.30;99.90
19085;DHT22;9675;51.538;6.728;2022-11-15T00:45:21;10.30;99.90
19085;DHT22;9675;51.538;6.728;2022-11-15T00:47:48;10.30;99.90
19085;DHT22;9675;51.538;6.728;2022-11-15T00:50:18;10.30;99.90
19085;DHT22;9675;51.538;6.728;2022-11-15T00:52:45;10.30;99.90
19085;DHT22;9675;51.538;6.728;2022-11-15T00:55:14;10.40;99.90
19085;DHT22;9675;51.538;6.728;2022-11-15T00:57:42;10.40;99.90
19085;DHT22;9675;51.538;6.728;2022-11-15T01:00:10;10.40;99.90
19085;DHT22;9675;51.538;6.728;2022-11-15T01:02:38;10.40;99.90
19085;DHT22;9675;51.538;6.728;2022-11-15T01:05:06;10.40;99.90
19085;DHT22;9675;51.538;6.728;2022-11-15T01:07:35;10.40;99.90
19085;DHT22;9675;51.538;6.728;2022-11-15T01:10:02;10.40;99.90
19085;DHT22;9675;51.538;6.728;2022-11-15T01:12:30;10.40;99.90
19085;DHT22;9675;51.538;6.728;2022-11-15T01:14:57;10.50;99.90
19085;DHT22;9675;51.538;6.728;2022-11-15T01:17:24;10.50;99.90
19085;DHT22;9675;51.538;6.728;2022-11-15T01:19:51;10.50;99.90
19085;DHT22;9675;51.538;6.728;2022-11-15T01:22:18;10.50;99.90
19085;DHT22;9675;51.538;6.728;2022-11-15T01:24:47;10.50;99.90
19085;DHT22;9675;51.538;6.728;2022-11-15T01:27:16;10.60;99.90
19085;DHT22;9675;51.538;6.728;2022-11-15T01:29:43;10.60;99.90
19085;DHT22;9675;51.538;6.728;2022-11-15T01:32:10;10.60;99.90
19085;DHT22;9675;51.538;6.728;2022-11-15T01:34:37;10.60;99.90
19085;DHT22;9675;51.538;6.728;2022-11-15T01:37:04;10.60;99.90
19085;DHT22;9675;51.538;6.728;2022-11-15T01:39:31;10.70;99.90
19085;DHT22;9675;51.538;6.728;2022-11-15T01:41:59;10.70;99.90
19085;DHT22;9675;51.538;6.728;2022-11-15T01:44:38;10.70;99.90
19085;DHT22;9675;51.538;6.728;2022-11-15T01:47:11;10.70;99.90
19085;DHT22;9675;51.538;6.728;2022-11-15T01:49:47;10.70;99.90
19085;DHT22;9675;51.538;6.728;2022-11-15T01:52:20;10.70;99.90
19085;DHT22;9675;51.538;6.728;2022-11-15T01:54:54;10.80;99.90
19085;DHT22;9675;51.538;6.728;2022-11-15T01:57:28;10.80;99.90
19085;DHT22;9675;51.538;6.728;2022-11-15T01:59:57;10.80;99.90
19085;DHT22;9675;51.538;6.728;2022-11-15T02:02:27;10.90;99.90
19085;DHT22;9675;51.538;6.728;2022-11-15T02:04:54;10.90;99.90
19085;DHT22;9675;51.538;6.728;2022-11-15T02:07:22;10.90;99.90
19085;DHT22;9675;51.538;6.728;2022-11-15T02:09:49;10.90;99.90
19085;DHT22;9675;51.538;6.728;2022-11-15T02:12:20;10.90;99.90
19085;DHT22;9675;51.538;6.728;2022-11-15T02:14:52;10.90;99.90
19085;DHT22;9675;51.538;6.728;2022-11-15T02:17:44;11.00;99.90
19085;DHT22;9675;51.538;6.728;2022-11-15T02:20:39;11.00;99.90
19085;DHT22;9675;51.538;6.728;2022-11-15T02:23:36;11.00;99.90
19085;DHT22;9675;51.538;6.728;2022-11-15T02:26:41;11.00;99.90
19085;DHT22;9675;51.538;6.728;2022-11-15T02:29:37;11.00;99.90
19085;DHT22;9675;51.538;6.728;2022-11-15T02:32:26;11.10;99.90
19085;DHT22;9675;51.538;6.728;2022-11-15T02:35:07;11.10;99.90
19085;DHT22;9675;51.538;6.728;2022-11-15T02:37:45;11.10;99.90
19085;DHT22;9675;51.538;6.728;2022-11-15T02:40:26;11.10;99.90
19085;DHT22;9675;51.538;6.728;2022-11-15T02:43:06;11.20;99.90
19085;DHT22;9675;51.538;6.728;2022-11-15T02:45:58;11.20;99.90
19085;DHT22;9675;51.538;6.728;2022-11-15T02:48:32;11.20;99.90
19085;DHT22;9675;51.538;6.728;2022-11-15T02:51:01;11.20;99.90
19085;DHT22;9675;51.538;6.728;2022-11-15T02:53:28;11.20;99.90
19085;DHT22;9675;51.538;6.728;2022-11-15T02:55:56;11.30;99.90
19085;DHT22;9675;51.538;6.728;2022-11-15T03:01:51;11.30;99.90
19085;DHT22;9675;51.538;6.728;2022-11-15T03:04:35;11.30;99.90
19085;DHT22;9675;51.538;6.728;2022-11-15T03:07:14;11.30;99.90
19085;DHT22;9675;51.538;6.728;2022-11-15T03:09:50;11.30;99.90
19085;DHT22;9675;51.538;6.728;2022-11-15T03:12:25;11.30;99.90
19085;DHT22;9675;51.538;6.728;2022-11-15T03:14:59;11.30;99.90
19085;DHT22;9675;51.538;6.728;2022-11-15T03:17:35;11.30;99.90
19085;DHT22;9675;51.538;6.728;2022-11-15T03:20:08;11.30;99.90
19085;DHT22;9675;51.538;6.728;2022-11-15T03:22:40;11.40;99.90
19085;DHT22;9675;51.538;6.728;2022-11-15T03:25:18;11.40;99.90
19085;DHT22;9675;51.538;6.728;2022-11-15T03:27:53;11.40;99.90
19085;DHT22;9675;51.538;6.728;2022-11-15T03:30:24;11.40;99.90
19085;DHT22;9675;51.538;6.728;2022-11-15T03:32:55;11.50;99.90
19085;DHT22;9675;51.538;6.728;2022-11-15T03:35:27;11.50;99.90
19085;DHT22;9675;51.538;6.728;2022-11-15T03:38:00;11.50;99.90
19085;DHT22;9675;51.538;6.728;2022-11-15T03:40:37;11.50;99.90
19085;DHT22;9675;51.538;6.728;2022-11-15T03:43:10;11.60;99.90
19085;DHT22;9675;51.538;6.728;2022-11-15T03:45:53;11.60;99.90
19085;DHT22;9675;51.538;6.728;2022-11-15T03:48:27;11.60;99.90
19085;DHT22;9675;51.538;6.728;2022-11-15T03:51:02;11.60;99.90
19085;DHT22;9675;51.538;6.728;2022-11-15T03:53:30;11.60;99.90
19085;DHT22;9675;51.538;6.728;2022-11-15T03:55:57;11.60;99.90
19085;DHT22;9675;51.538;6.728;2022-11-15T03:58:24;11.60;99.90
19085;DHT22;9675;51.538;6.728;2022-11-15T04:00:51;11.60;99.90
19085;DHT22;9675;51.538;6.728;2022-11-15T04:03:18;11.70;99.90
19085;DHT22;9675;51.538;6.728;2022-11-15T04:05:45;11.70;99.90
19085;DHT22;9675;51.538;6.728;2022-11-15T04:08:14;11.70;99.90
19085;DHT22;9675;51.538;6.728;2022-11-15T04:10:41;11.80;99.90
19085;DHT22;9675;51.538;6.728;2022-11-15T04:13:08;11.80;99.90
19085;DHT22;9675;51.538;6.728;2022-11-15T04:15:35;11.80;99.90
19085;DHT22;9675;51.538;6.728;2022-11-15T04:18:02;11.80;99.90
19085;DHT22;9675;51.538;6.728;2022-11-15T04:20:31;11.80;99.90
19085;DHT22;9675;51.538;6.728;2022-11-15T04:23:21;11.90;99.90
19085;DHT22;9675;51.538;6.728;2022-11-15T04:26:09;11.90;99.90
19085;DHT22;9675;51.538;6.728;2022-11-15T04:28:38;11.90;99.90
19085;DHT22;9675;51.538;6.728;2022-11-15T04:31:26;11.90;99.90
19085;DHT22;9675;51.538;6.728;2022-11-15T04:33:53;11.90;99.90
19085;DHT22;9675;51.538;6.728;2022-11-15T04:36:22;12.00;99.90
19085;DHT22;9675;51.538;6.728;2022-11-15T04:39:07;12.00;99.90
19085;DHT22;9675;51.538;6.728;2022-11-15T04:41:35;11.90;99.90
19085;DHT22;9675;51.538;6.728;2022-11-15T04:44:02;11.90;99.90
19085;DHT22;9675;51.538;6.728;2022-11-15T04:46:29;11.90;99.90
19085;DHT22;9675;51.538;6.728;2022-11-15T04:48:56;12.00;99.90
19085;DHT22;9675;51.538;6.728;2022-11-15T04:51:23;12.00;99.90
19085;DHT22;9675;51.538;6.728;2022-11-15T04:53:50;12.00;99.90
19085;DHT22;9675;51.538;6.728;2022-11-15T04:56:19;12.00;99.90
19085;DHT22;9675;51.538;6.728;2022-11-15T04:58:48;12.00;99.90
19085;DHT22;9675;51.538;6.728;2022-11-15T05:01:16;12.00;99.90
19085;DHT22;9675;51.538;6.728;2022-11-15T05:03:44;12.00;99.90
19085;DHT22;9675;51.538;6.728;2022-11-15T05:06:29;12.10;99.90
19085;DHT22;9675;51.538;6.728;2022-11-15T05:08:57;12.10;99.90
19085;DHT22;9675;51.538;6.728;2022-11-15T05:11:25;12.10;99.90
19085;DHT22;9675;51.538;6.728;2022-11-15T05:13:53;12.10;99.90
19085;DHT22;9675;51.538;6.728;2022-11-15T05:16:20;12.10;99.90
19085;DHT22;9675;51.538;6.728;2022-11-15T05:18:50;12.00;99.90
19085;DHT22;9675;51.538;6.728;2022-11-15T05:21:19;12.10;99.90
19085;DHT22;9675;51.538;6.728;2022-11-15T05:23:47;12.00;99.90
19085;DHT22;9675;51.538;6.728;2022-11-15T05:26:16;12.10;99.90
19085;DHT22;9675;51.538;6.728;2022-11-15T05:28:45;12.10;99.90
19085;DHT22;9675;51.538;6.728;2022-11-15T05:31:14;12.10;99.90
19085;DHT22;9675;51.538;6.728;2022-11-15T05:33:43;12.10;99.90
19085;DHT22;9675;51.538;6.728;2022-11-15T05:36:15;12.10;99.90
19085;DHT22;9675;51.538;6.728;2022-11-15T05:38:45;12.10;99.90
19085;DHT22;9675;51.538;6.728;2022-11-15T05:41:16;12.00;99.90
19085;DHT22;9675;51.538;6.728;2022-11-15T05:43:49;12.10;99.90
19085;DHT22;9675;51.538;6.728;2022-11-15T05:46:17;12.10;99.90
19085;DHT22;9675;51.538;6.728;2022-11-15T05:48:47;12.10;99.90
19085;DHT22;9675;51.538;6.728;2022-11-15T05:51:18;12.20;99.90
19085;DHT22;9675;51.538;6.728;2022-11-15T05:53:48;12.10;99.90
19085;DHT22;9675;51.538;6.728;2022-11-15T05:56:16;12.20;99.90
19085;DHT22;9675;51.538;6.728;2022-11-15T05:58:43;12.20;99.90
19085;DHT22;9675;51.538;6.728;2022-11-15T06:01:12;12.20;99.90
19085;DHT22;9675;51.538;6.728;2022-11-15T06:03:39;12.20;99.90
19085;DHT22;9675;51.538;6.728;2022-11-15T06:06:06;12.20;99.90
19085;DHT22;9675;51.538;6.728;2022-11-15T06:08:33;12.20;99.90
19085;DHT22;9675;51.538;6.728;2022-11-15T06:11:04;12.20;99.90
19085;DHT22;9675;51.538;6.728;2022-11-15T06:13:31;12.20;99.90
19085;DHT22;9675;51.538;6.728;2022-11-15T06:15:58;12.20;99.90
19085;DHT22;9675;51.538;6.728;2022-11-15T06:18:27;12.30;99.90
19085;DHT22;9675;51.538;6.728;2022-11-15T06:20:58;12.30;99.90
19085;DHT22;9675;51.538;6.728;2022-11-15T06:23:26;12.30;99.90
19085;DHT22;9675;51.538;6.728;2022-11-15T06:25:53;12.30;99.90
19085;DHT22;9675;51.538;6.728;2022-11-15T06:28:24;12.30;99.90
19085;DHT22;9675;51.538;6.728;2022-11-15T06:30:51;12.30;99.90
19085;DHT22;9675;51.538;6.728;2022-11-15T06:33:18;12.30;99.90
19085;DHT22;9675;51.538;6.728;2022-11-15T06:35:46;12.30;99.90
19085;DHT22;9675;51.538;6.728;2022-11-15T06:38:13;12.30;99.90
19085;DHT22;9675;51.538;6.728;2022-11-15T06:40:40;12.40;99.90
19085;DHT22;9675;51.538;6.728;2022-11-15T06:43:07;12.40;99.90
19085;DHT22;9675;51.538;6.728;2022-11-15T06:45:34;12.40;99.90
19085;DHT22;9675;51.538;6.728;2022-11-15T06:48:01;12.40;99.90
19085;DHT22;9675;51.538;6.728;2022-11-15T06:50:29;12.40;99.90
19085;DHT22;9675;51.538;6.728;2022-11-15T06:53:01;12.40;99.90
19085;DHT22;9675;51.538;6.728;2022-11-15T06:55:28;12.40;99.90
19085;DHT22;9675;51.538;6.728;2022-11-15T06:57:56;12.40;99.90
19085;DHT22;9675;51.538;6.728;2022-11-15T07:00:23;12.40;99.90
19085;DHT22;9675;51.538;6.728;2022-11-15T07:02:50;12.40;99.90
19085;DHT22;9675;51.538;6.728;2022-11-15T07:05:17;12.40;99.90
19085;DHT22;9675;51.538;6.728;2022-11-15T07:07:51;12.40;99.90
19085;DHT22;9675;51.538;6.728;2022-11-15T07:10:22;12.40;99.90
19085;DHT22;9675;51.538;6.728;2022-11-15T07:12:51;12.40;99.90
19085;DHT22;9675;51.538;6.728;2022-11-15T07:15:21;12.50;99.90
19085;DHT22;9675;51.538;6.728;2022-11-15T07:17:49;12.50;99.90
19085;DHT22;9675;51.538;6.728;2022-11-15T07:20:17;12.50;99.90
19085;DHT22;9675;51.538;6.728;2022-11-15T07:22:45;12.50;99.90
19085;DHT22;9675;51.538;6.728;2022-11-15T07:25:12;12.50;99.90
19085;DHT22;9675;51.538;6.728;2022-11-15T07:27:40;12.50;99.90
19085;DHT22;9675;51.538;6.728;2022-11-15T07:30:08;12.50;99.90
19085;DHT22;9675;51.538;6.728;2022-11-15T07:32:36;12.60;99.90
19085;DHT22;9675;51.538;6.728;2022-11-15T07:35:03;12.60;99.90
19085;DHT22;9675;51.538;6.728;2022-11-15T07:37:30;12.60;99.90
19085;DHT22;9675;51.538;6.728;2022-11-15T07:39:57;12.60;99.90
19085;DHT22;9675;51.538;6.728;2022-11-15T07:42:24;12.60;99.90
19085;DHT22;9675;51.538;6.728;2022-11-15T07:45:10;12.60;99.90
19085;DHT22;9675;51.538;6.728;2022-11-15T07:47:37;12.60;99.90
19085;DHT22;9675;51.538;6.728;2022-11-15T07:50:05;12.60;99.90
19085;DHT22;9675;51.538;6.728;2022-11-15T07:52:32;12.60;99.90
19085;DHT22;9675;51.538;6.728;2022-11-15T07:54:59;12.60;99.90
19085;DHT22;9675;51.538;6.728;2022-11-15T07:57:26;12.60;99.90
19085;DHT22;9675;51.538;6.728;2022-11-15T07:59:54;12.60;99.90
19085;DHT22;9675;51.538;6.728;2022-11-15T08:02:22;12.50;99.90
19085;DHT22;9675;51.538;6.728;2022-11-15T08:04:49;12.60;99.90
19085;DHT22;9675;51.538;6.728;2022-11-15T08:07:16;12.60;99.90
19085;DHT22;9675;51.538;6.728;2022-11-15T08:09:43;12.60;99.90
19085;DHT22;9675;51.538;6.728;2022-11-15T08:12:10;12.60;99.90
19085;DHT22;9675;51.538;6.728;2022-11-15T08:14:37;12.50;99.90
19085;DHT22;9675;51.538;6.728;2022-11-15T08:17:04;12.50;99.90
19085;DHT22;9675;51.538;6.728;2022-11-15T08:19:33;12.50;99.90
19085;DHT22;9675;51.538;6.728;2022-11-15T08:22:00;12.50;99.90
19085;DHT22;9675;51.538;6.728;2022-11-15T08:24:27;12.50;99.90
19085;DHT22;9675;51.538;6.728;2022-11-15T08:26:54;12.40;99.90
19085;DHT22;9675;51.538;6.728;2022-11-15T08:29:21;12.40;99.90
19085;DHT22;9675;51.538;6.728;2022-11-15T08:31:48;12.40;99.90
19085;DHT22;9675;51.538;6.728;2022-11-15T08:34:15;12.40;99.90
19085;DHT22;9675;51.538;6.728;2022-11-15T08:36:43;12.40;99.90
19085;DHT22;9675;51.538;6.728;2022-11-15T08:39:11;12.40;99.90
19085;DHT22;9675;51.538;6.728;2022-11-15T08:41:39;12.40;99.90
19085;DHT22;9675;51.538;6.728;2022-11-15T08:44:06;12.40;99.90
19085;DHT22;9675;51.538;6.728;2022-11-15T08:46:33;12.30;99.90
19085;DHT22;9675;51.538;6.728;2022-11-15T08:49:00;12.30;99.90
19085;DHT22;9675;51.538;6.728;2022-11-15T08:51:27;12.30;99.90
19085;DHT22;9675;51.538;6.728;2022-11-15T08:53:55;12.30;99.90
19085;DHT22;9675;51.538;6.728;2022-11-15T08:56:22;12.30;99.90
19085;DHT22;9675;51.538;6.728;2022-11-15T08:58:49;12.30;99.90
19085;DHT22;9675;51.538;6.728;2022-11-15T09:01:17;12.30;99.90
19085;DHT22;9675;51.538;6.728;2022-11-15T09:03:46;12.30;99.90
19085;DHT22;9675;51.538;6.728;2022-11-15T09:06:13;12.30;99.90
19085;DHT22;9675;51.538;6.728;2022-11-15T09:08:41;12.30;99.90
19085;DHT22;9675;51.538;6.728;2022-11-15T09:11:10;12.30;99.90
19085;DHT22;9675;51.538;6.728;2022-11-15T09:13:38;12.30;99.90
19085;DHT22;9675;51.538;6.728;2022-11-15T09:16:05;12.30;99.90
19085;DHT22;9675;51.538;6.728;2022-11-15T09:18:33;12.30;99.90
19085;DHT22;9675;51.538;6.728;2022-11-15T09:21:01;12.30;99.90
19085;DHT22;9675;51.538;6.728;2022-11-15T09:23:29;12.30;99.90
19085;DHT22;9675;51.538;6.728;2022-11-15T09:25:59;12.30;99.90
19085;DHT22;9675;51.538;6.728;2022-11-15T09:28:29;12.40;99.90
19085;DHT22;9675;51.538;6.728;2022-11-15T09:30:58;12.40;99.90
19085;DHT22;9675;51.538;6.728;2022-11-15T09:33:26;12.40;99.90
19085;DHT22;9675;51.538;6.728;2022-11-15T09:35:53;12.40;99.90
19085;DHT22;9675;51.538;6.728;2022-11-15T09:38:20;12.40;99.90
19085;DHT22;9675;51.538;6.728;2022-11-15T09:40:53;12.40;99.90
19085;DHT22;9675;51.538;6.728;2022-11-15T09:43:44;12.40;99.90
19085;DHT22;9675;51.538;6.728;2022-11-15T09:46:22;12.40;99.90
19085;DHT22;9675;51.538;6.728;2022-11-15T09:49:01;12.40;99.90
19085;DHT22;9675;51.538;6.728;2022-11-15T09:51:31;12.50;99.90
19085;DHT22;9675;51.538;6.728;2022-11-15T09:54:11;12.50;99.90
19085;DHT22;9675;51.538;6.728;2022-11-15T09:56:47;12.50;99.90
19085;DHT22;9675;51.538;6.728;2022-11-15T09:59:27;12.50;99.90
19085;DHT22;9675;51.538;6.728;2022-11-15T10:02:19;12.50;99.90
19085;DHT22;9675;51.538;6.728;2022-11-15T10:04:59;12.50;99.90
19085;DHT22;9675;51.538;6.728;2022-11-15T10:07:34;12.60;99.90
19085;DHT22;9675;51.538;6.728;2022-11-15T10:10:24;12.60;99.90
19085;DHT22;9675;51.538;6.728;2022-11-15T10:12:54;12.60;99.90
19085;DHT22;9675;51.538;6.728;2022-11-15T10:15:23;12.60;99.90
19085;DHT22;9675;51.538;6.728;2022-11-15T10:18:12;12.70;99.90
19085;DHT22;9675;51.538;6.728;2022-11-15T10:20:47;12.70;99.90
19085;DHT22;9675;51.538;6.728;2022-11-15T10:23:18;12.70;99.90
19085;DHT22;9675;51.538;6.728;2022-11-15T10:25:50;12.70;99.90
19085;DHT22;9675;51.538;6.728;2022-11-15T10:28:22;12.80;99.90
19085;DHT22;9675;51.538;6.728;2022-11-15T10:30:56;12.80;99.90
19085;DHT22;9675;51.538;6.728;2022-11-15T10:33:26;12.90;99.90
19085;DHT22;9675;51.538;6.728;2022-11-15T10:36:18;12.90;99.90
19085;DHT22;9675;51.538;6.728;2022-11-15T10:38:57;12.90;99.90
19085;DHT22;9675;51.538;6.728;2022-11-15T10:41:35;12.90;99.90
19085;DHT22;9675;51.538;6.728;2022-11-15T10:44:20;13.00;99.90
19085;DHT22;9675;51.538;6.728;2022-11-15T10:47:21;13.00;99.90
19085;DHT22;9675;51.538;6.728;2022-11-15T10:49:55;13.10;99.90
19085;DHT22;9675;51.538;6.728;2022-11-15T10:52:29;13.10;99.90
19085;DHT22;9675;51.538;6.728;2022-11-15T10:55:01;13.20;99.90
19085;DHT22;9675;51.538;6.728;2022-11-15T10:57:35;13.30;99.90
19085;DHT22;9675;51.538;6.728;2022-11-15T11:00:05;13.40;99.90
19085;DHT22;9675;51.538;6.728;2022-11-15T11:02:37;13.50;99.90
19085;DHT22;9675;51.538;6.728;2022-11-15T11:05:29;13.50;99.90
19085;DHT22;9675;51.538;6.728;2022-11-15T11:08:01;13.60;99.90
19085;DHT22;9675;51.538;6.728;2022-11-15T11:10:30;13.60;99.90
19085;DHT22;9675;51.538;6.728;2022-11-15T11:13:12;13.70;99.90
19085;DHT22;9675;51.538;6.728;2022-11-15T11:15:43;13.70;99.90
19085;DHT22;9675;51.538;6.728;2022-11-15T11:18:21;13.80;99.90
19085;DHT22;9675;51.538;6.728;2022-11-15T11:20:57;13.80;99.90
19085;DHT22;9675;51.538;6.728;2022-11-15T11:23:44;13.90;99.90
19085;DHT22;9675;51.538;6.728;2022-11-15T11:26:40;14.00;99.90
19085;DHT22;9675;51.538;6.728;2022-11-15T11:29:26;14.00;99.90
19085;DHT22;9675;51.538;6.728;2022-11-15T11:32:21;14.10;99.90
19085;DHT22;9675;51.538;6.728;2022-11-15T11:35:10;14.20;99.90
19085;DHT22;9675;51.538;6.728;2022-11-15T11:37:47;14.20;99.90
19085;DHT22;9675;51.538;6.728;2022-11-15T11:40:28;14.30;99.90
19085;DHT22;9675;51.538;6.728;2022-11-15T11:43:04;14.30;99.90
19085;DHT22;9675;51.538;6.728;2022-11-15T11:45:59;14.40;99.90
19085;DHT22;9675;51.538;6.728;2022-11-15T11:48:41;14.50;99.90
19085;DHT22;9675;51.538;6.728;2022-11-15T11:51:17;14.60;99.90
19085;DHT22;9675;51.538;6.728;2022-11-15T11:53:52;14.60;99.90
19085;DHT22;9675;51.538;6.728;2022-11-15T11:56:28;14.70;99.90
19085;DHT22;9675;51.538;6.728;2022-11-15T11:59:02;14.70;99.90
19085;DHT22;9675;51.538;6.728;2022-11-15T12:01:41;14.80;99.90
19085;DHT22;9675;51.538;6.728;2022-11-15T12:04:13;14.80;99.90
19085;DHT22;9675;51.538;6.728;2022-11-15T12:06:50;14.90;99.90
19085;DHT22;9675;51.538;6.728;2022-11-15T12:09:27;14.90;99.90
19085;DHT22;9675;51.538;6.728;2022-11-15T12:12:06;15.00;99.90
19085;DHT22;9675;51.538;6.728;2022-11-15T12:14:42;15.00;99.90
19085;DHT22;9675;51.538;6.728;2022-11-15T12:17:13;15.10;99.90
19085;DHT22;9675;51.538;6.728;2022-11-15T12:19:42;15.10;99.90
19085;DHT22;9675;51.538;6.728;2022-11-15T12:22:14;15.20;99.90
19085;DHT22;9675;51.538;6.728;2022-11-15T12:24:56;15.20;99.90
19085;DHT22;9675;51.538;6.728;2022-11-15T12:27:35;15.30;99.90
19085;DHT22;9675;51.538;6.728;2022-11-15T12:30:11;15.30;99.90
19085;DHT22;9675;51.538;6.728;2022-11-15T12:32:50;15.40;99.90
19085;DHT22;9675;51.538;6.728;2022-11-15T12:35:26;15.40;99.90
19085;DHT22;9675;51.538;6.728;2022-11-15T12:38:04;15.40;99.90
19085;DHT22;9675;51.538;6.728;2022-11-15T12:40:37;15.50;99.90
19085;DHT22;9675;51.538;6.728;2022-11-15T12:43:37;15.50;99.90
19085;DHT22;9675;51.538;6.728;2022-11-15T12:46:11;15.60;99.90
19085;DHT22;9675;51.538;6.728;2022-11-15T12:48:54;15.60;99.90
19085;DHT22;9675;51.538;6.728;2022-11-15T12:54:56;15.60;99.90
19085;DHT22;9675;51.538;6.728;2022-11-15T12:57:36;15.70;99.90
19085;DHT22;9675;51.538;6.728;2022-11-15T13:03:21;15.70;99.90
19085;DHT22;9675;51.538;6.728;2022-11-15T13:06:09;15.80;99.90
19085;DHT22;9675;51.538;6.728;2022-11-15T13:08:51;15.80;99.90
19085;DHT22;9675;51.538;6.728;2022-11-15T13:11:46;15.80;99.90
19085;DHT22;9675;51.538;6.728;2022-11-15T13:14:42;15.80;99.90
19085;DHT22;9675;51.538;6.728;2022-11-15T13:17:32;15.80;99.90
19085;DHT22;9675;51.538;6.728;2022-11-15T13:20:18;15.80;99.90
19085;DHT22;9675;51.538;6.728;2022-11-15T13:22:51;15.90;99.90
19085;DHT22;9675;51.538;6.728;2022-11-15T13:28:41;15.90;99.90
19085;DHT22;9675;51.538;6.728;2022-11-15T13:31:27;16.00;99.90
19085;DHT22;9675;51.538;6.728;2022-11-15T13:33:59;15.90;99.90
19085;DHT22;9675;51.538;6.728;2022-11-15T13:36:31;16.00;99.90
19085;DHT22;9675;51.538;6.728;2022-11-15T13:39:02;16.00;99.90
19085;DHT22;9675;51.538;6.728;2022-11-15T13:41:32;16.00;99.90
19085;DHT22;9675;51.538;6.728;2022-11-15T13:44:03;16.00;99.90
19085;DHT22;9675;51.538;6.728;2022-11-15T13:46:45;16.00;99.90
19085;DHT22;9675;51.538;6.728;2022-11-15T13:49:12;16.00;99.90
19085;DHT22;9675;51.538;6.728;2022-11-15T13:51:42;16.00;99.90
19085;DHT22;9675;51.538;6.728;2022-11-15T13:54:17;16.00;99.90
19085;DHT22;9675;51.538;6.728;2022-11-15T13:56:49;16.00;99.90
19085;DHT22;9675;51.538;6.728;2022-11-15T13:59:25;16.00;99.90
19085;DHT22;9675;51.538;6.728;2022-11-15T14:01:54;16.00;99.90
19085;DHT22;9675;51.538;6.728;2022-11-15T14:04:24;16.00;99.90
19085;DHT22;9675;51.538;6.728;2022-11-15T14:06:56;15.90;99.90
19085;DHT22;9675;51.538;6.728;2022-11-15T14:09:37;15.90;99.90
19085;DHT22;9675;51.538;6.728;2022-11-15T14:12:26;16.00;99.90
19085;DHT22;9675;51.538;6.728;2022-11-15T14:14:57;15.90;99.90
19085;DHT22;9675;51.538;6.728;2022-11-15T14:17:36;15.90;99.90
19085;DHT22;9675;51.538;6.728;2022-11-15T14:20:28;15.90;99.90
19085;DHT22;9675;51.538;6.728;2022-11-15T14:22:59;15.90;99.90
19085;DHT22;9675;51.538;6.728;2022-11-15T14:25:28;15.90;99.90
19085;DHT22;9675;51.538;6.728;2022-11-15T14:28:11;15.90;99.90
19085;DHT22;9675;51.538;6.728;2022-11-15T14:31:00;15.90;99.90
19085;DHT22;9675;51.538;6.728;2022-11-15T14:33:30;15.80;99.90
19085;DHT22;9675;51.538;6.728;2022-11-15T14:36:03;15.80;99.90
19085;DHT22;9675;51.538;6.728;2022-11-15T14:38:32;15.80;99.90
19085;DHT22;9675;51.538;6.728;2022-11-15T14:41:00;15.80;99.90
19085;DHT22;9675;51.538;6.728;2022-11-15T14:43:27;15.80;99.90
19085;DHT22;9675;51.538;6.728;2022-11-15T14:45:54;15.80;99.90
19085;DHT22;9675;51.538;6.728;2022-11-15T14:48:23;15.70;99.90
19085;DHT22;9675;51.538;6.728;2022-11-15T14:50:50;15.70;99.90
19085;DHT22;9675;51.538;6.728;2022-11-15T14:53:17;15.70;99.90
19085;DHT22;9675;51.538;6.728;2022-11-15T14:55:45;15.70;99.90
19085;DHT22;9675;51.538;6.728;2022-11-15T14:58:12;15.70;99.90
19085;DHT22;9675;51.538;6.728;2022-11-15T15:00:40;15.70;99.90
19085;DHT22;9675;51.538;6.728;2022-11-15T15:03:08;15.60;99.90
19085;DHT22;9675;51.538;6.728;2022-11-15T15:05:38;15.60;99.90
19085;DHT22;9675;51.538;6.728;2022-11-15T15:08:07;15.60;99.90
19085;DHT22;9675;51.538;6.728;2022-11-15T15:10:36;15.60;99.90
19085;DHT22;9675;51.538;6.728;2022-11-15T15:13:05;15.60;99.90
19085;DHT22;9675;51.538;6.728;2022-11-15T15:15:34;15.60;99.90
19085;DHT22;9675;51.538;6.728;2022-11-15T15:18:02;15.60;99.90
19085;DHT22;9675;51.538;6.728;2022-11-15T15:20:31;15.60;99.90
19085;DHT22;9675;51.538;6.728;2022-11-15T15:23:00;15.60;99.90
19085;DHT22;9675;51.538;6.728;2022-11-15T15:25:28;15.50;99.90
19085;DHT22;9675;51.538;6.728;2022-11-15T15:27:57;15.50;99.90
19085;DHT22;9675;51.538;6.728;2022-11-15T15:30:26;15.50;99.90
19085;DHT22;9675;51.538;6.728;2022-11-15T15:32:54;15.50;99.90
19085;DHT22;9675;51.538;6.728;2022-11-15T15:35:22;15.50;99.90
19085;DHT22;9675;51.538;6.728;2022-11-15T15:37:49;15.50;99.90
19085;DHT22;9675;51.538;6.728;2022-11-15T15:40:21;15.40;99.90
19085;DHT22;9675;51.538;6.728;2022-11-15T15:42:50;15.40;99.90
19085;DHT22;9675;51.538;6.728;2022-11-15T15:45:18;15.40;99.90
19085;DHT22;9675;51.538;6.728;2022-11-15T15:47:46;15.40;99.90
19085;DHT22;9675;51.538;6.728;2022-11-15T15:50:20;15.40;99.90
19085;DHT22;9675;51.538;6.728;2022-11-15T15:52:49;15.40;99.90
19085;DHT22;9675;51.538;6.728;2022-11-15T15:55:18;15.30;99.90
19085;DHT22;9675;51.538;6.728;2022-11-15T15:57:46;15.30;99.90
19085;DHT22;9675;51.538;6.728;2022-11-15T16:00:14;15.30;99.90
19085;DHT22;9675;51.538;6.728;2022-11-15T16:02:42;15.30;99.90
19085;DHT22;9675;51.538;6.728;2022-11-15T16:05:10;15.30;99.90
19085;DHT22;9675;51.538;6.728;2022-11-15T16:07:38;15.30;99.90
19085;DHT22;9675;51.538;6.728;2022-11-15T16:10:22;15.30;99.90
19085;DHT22;9675;51.538;6.728;2022-11-15T16:12:51;15.20;99.90
19085;DHT22;9675;51.538;6.728;2022-11-15T16:15:20;15.20;99.90
19085;DHT22;9675;51.538;6.728;2022-11-15T16:17:50;15.20;99.90
19085;DHT22;9675;51.538;6.728;2022-11-15T16:20:29;15.20;99.90
19085;DHT22;9675;51.538;6.728;2022-11-15T16:22:58;15.20;99.90
19085;DHT22;9675;51.538;6.728;2022-11-15T16:25:27;15.10;99.90
19085;DHT22;9675;51.538;6.728;2022-11-15T16:27:54;15.10;99.90
19085;DHT22;9675;51.538;6.728;2022-11-15T16:30:22;15.10;99.90